Time;durP1;ratioP1;P1;durP2;ratioP2;P2;SDS_P1;SDS_P2;PMS_P1;PMS_P2;Temp;Humidity;BMP_temperature;BMP_pressure;BME280_temperature;BME280_humidity;BME280_pressure;Samples;Min_cycle;Max_cycle;Signal;HPM_P1;HPM_P2
2021/05/02 00:02:23;;;;;;;24.52;19.70;;;;;;;8.10;79.41;101243.81;5052545;28;20044;-66
2021/05/02 00:04:50;;;;;;;25.85;19.95;;;;;;;8.23;79.04;101240.41;5034279;28;20072;-64
2021/05/02 00:07:17;;;;;;;25.85;19.27;;;;;;;8.79;77.53;101244.38;5052306;28;20060;-67
2021/05/02 00:09:44;;;;;;;25.08;19.33;;;;;;;8.11;77.73;101242.69;5051959;28;20045;-65
2021/05/02 00:12:11;;;;;;;25.08;18.83;;;;;;;8.26;77.79;101237.16;5017528;28;20444;-68
2021/05/02 00:14:38;;;;;;;25.92;19.02;;;;;;;8.44;77.52;101236.44;5034191;28;20045;-67
2021/05/02 00:21:36;;;;;;;24.10;17.10;;;;;;;8.55;74.97;101245.44;5052172;28;20048;-66
2021/05/02 00:24:04;;;;;;;26.38;17.50;;;;;;;8.47;75.59;101243.31;5034581;28;20052;-66
2021/05/02 00:26:32;;;;;;;23.75;17.27;;;;;;;8.84;74.46;101240.75;5052246;28;20053;-68
2021/05/02 00:29:01;;;;;;;21.67;17.15;;;;;;;8.75;73.06;101245.25;5034383;28;20052;-68
2021/05/02 00:35:52;;;;;;;21.67;16.60;;;;;;;8.12;76.06;101243.53;5052166;28;20056;-67
2021/05/02 00:38:19;;;;;;;21.50;16.83;;;;;;;8.24;76.45;101239.38;5034772;28;20049;-66
2021/05/02 00:40:50;;;;;;;21.95;17.00;;;;;;;8.53;75.46;101244.88;5051545;28;20053;-65
2021/05/02 00:43:27;;;;;;;21.50;16.55;;;;;;;8.57;74.91;101241.31;5051349;28;20053;-68
2021/05/02 00:46:17;;;;;;;24.92;17.50;;;;;;;8.90;73.82;101243.19;5018087;28;20045;-67
2021/05/02 00:49:34;;;;;;;21.70;17.48;;;;;;;8.85;72.56;101235.00;5051406;28;20045;-67
2021/05/02 00:52:10;;;;;;;21.98;16.75;;;;;;;8.94;73.97;101238.75;4990635;28;20058;-68
2021/05/02 00:54:45;;;;;;;22.00;17.48;;;;;;;9.13;71.57;101231.41;4974588;28;20085;-70
2021/05/02 00:57:30;;;;;;;22.95;17.75;;;;;;;8.96;72.63;101228.28;4974530;28;20078;-69
2021/05/02 01:00:04;;;;;;;19.90;15.07;;;;;;;10.41;71.50;101234.97;4990090;28;20079;-65
2021/05/02 01:02:34;;;;;;;21.88;16.73;;;;;;;9.47;69.32;101236.78;4990573;28;20046;-67
2021/05/02 01:05:03;;;;;;;22.10;17.55;;;;;;;9.32;71.70;101241.66;4990426;28;20078;-68
2021/05/02 01:07:36;;;;;;;25.00;18.95;;;;;;;8.28;74.38;101239.59;4990202;28;20063;-68
2021/05/02 01:10:10;;;;;;;25.45;18.88;;;;;;;8.37;75.10;101237.91;4990081;28;20046;-68
2021/05/02 01:12:43;;;;;;;23.95;19.75;;;;;;;8.49;74.55;101246.59;4974286;28;20058;-66
2021/05/02 01:15:13;;;;;;;31.05;20.30;;;;;;;8.24;75.31;101246.75;4990302;28;20046;-68
2021/05/02 01:17:43;;;;;;;31.48;21.75;;;;;;;7.96;75.97;101238.16;4989620;28;20054;-70
2021/05/02 01:20:13;;;;;;;24.15;19.88;;;;;;;8.09;75.93;101242.16;4973736;28;20174;-69
2021/05/02 01:22:42;;;;;;;27.23;21.88;;;;;;;7.98;76.94;101249.63;4989802;28;20590;-70
2021/05/02 01:25:11;;;;;;;25.92;20.55;;;;;;;8.27;76.25;101248.94;4997107;28;20046;-67
2021/05/02 01:27:39;;;;;;;26.63;20.25;;;;;;;8.38;74.98;101254.09;5033511;28;20492;-67
2021/05/02 01:30:09;;;;;;;31.60;22.00;;;;;;;7.79;78.04;101250.59;5051110;28;20052;-68
2021/05/02 01:32:36;;;;;;;27.90;21.85;;;;;;;7.88;77.89;101257.91;5050676;28;20041;-66
2021/05/02 01:35:05;;;;;;;30.25;21.40;;;;;;;8.25;77.47;101256.63;5050734;28;20049;-69
2021/05/02 01:37:32;;;;;;;30.10;22.05;;;;;;;8.02;77.26;101264.44;5051148;28;20045;-69
2021/05/02 01:40:00;;;;;;;26.80;21.38;;;;;;;8.44;77.52;101269.38;5050767;28;20399;-69
2021/05/02 01:42:27;;;;;;;27.02;22.73;;;;;;;8.12;76.22;101260.00;5050907;28;20041;-70
2021/05/02 01:44:54;;;;;;;28.80;22.45;;;;;;;8.08;77.39;101267.13;5050836;28;20052;-68
2021/05/02 01:47:21;;;;;;;31.27;22.90;;;;;;;7.88;77.70;101276.28;5055153;28;20044;-68
2021/05/02 01:50:07;;;;;;;29.85;23.73;;;;;;;7.83;78.84;101279.88;5037722;28;20036;-67
2021/05/02 01:52:43;;;;;;;28.02;23.45;;;;;;;7.78;77.93;101274.44;5055656;28;20057;-66
2021/05/02 01:55:11;;;;;;;31.08;24.08;;;;;;;7.64;78.90;101269.81;5037228;28;20056;-67
2021/05/02 01:57:39;;;;;;;32.10;23.90;;;;;;;7.87;78.50;101272.75;5055487;28;20041;-71
2021/05/02 02:00:27;;;;;;;29.73;23.85;;;;;;;7.86;78.60;101268.34;5055179;28;20480;-71
2021/05/02 02:02:58;;;;;;;30.67;24.90;;;;;;;7.93;77.67;101273.53;5055616;28;20049;-69
2021/05/02 02:05:26;;;;;;;30.90;22.90;;;;;;;8.44;76.35;101272.13;5037948;28;20064;-70
2021/05/02 02:07:57;;;;;;;28.70;23.48;;;;;;;8.00;76.92;101283.09;5056268;28;20060;-69
2021/05/02 02:10:25;;;;;;;31.80;23.27;;;;;;;7.86;78.14;101279.31;5023693;28;20045;-69
2021/05/02 02:12:52;;;;;;;28.77;23.85;;;;;;;8.36;77.53;101282.91;5056373;28;20385;-68
2021/05/02 02:15:20;;;;;;;35.33;23.90;;;;;;;8.04;76.81;101285.28;5056007;28;20547;-69
2021/05/02 02:17:46;;;;;;;34.90;24.08;;;;;;;8.10;77.71;101281.41;5038003;28;20053;-72
2021/05/02 02:20:14;;;;;;;30.65;23.88;;;;;;;7.90;77.85;101291.38;5055170;28;20052;-69
2021/05/02 02:22:44;;;;;;;31.13;25.33;;;;;;;7.80;79.25;101285.94;5053985;28;20063;-70
2021/05/02 02:25:11;;;;;;;35.80;25.02;;;;;;;7.92;79.72;101288.34;5036634;28;20496;-70
2021/05/02 02:27:39;;;;;;;30.63;24.33;;;;;;;8.44;78.75;101287.81;5036396;28;20053;-68
2021/05/02 02:30:08;;;;;;;31.98;24.92;;;;;;;8.54;75.67;101291.28;5036313;28;20053;-69
2021/05/02 02:32:44;;;;;;;33.05;25.63;;;;;;;7.68;77.80;101293.69;5053446;28;20053;-69
2021/05/02 02:35:15;;;;;;;36.05;26.63;;;;;;;7.54;78.71;101297.28;5053844;28;20056;-69
2021/05/02 02:37:44;;;;;;;33.58;25.55;;;;;;;8.26;79.03;101299.44;5054376;28;20064;-67
2021/05/02 02:40:14;;;;;;;31.85;25.67;;;;;;;8.05;77.14;101304.19;5054059;28;20396;-66
2021/05/02 02:42:44;;;;;;;35.90;26.70;;;;;;;7.58;79.40;101307.41;5036425;28;20053;-68
2021/05/02 02:45:13;;;;;;;34.38;26.75;;;;;;;8.17;78.70;101304.69;5054202;28;20507;-66
2021/05/02 02:47:45;;;;;;;37.33;27.60;;;;;;;7.94;77.28;101299.84;5037507;28;20392;-67
2021/05/02 02:50:16;;;;;;;32.80;24.88;;;;;;;8.05;79.54;101300.63;5054692;28;20057;-67
2021/05/02 02:52:51;;;;;;;33.05;24.95;;;;;;;8.33;75.40;101295.28;5035695;28;20057;-69
2021/05/02 02:55:23;;;;;;;33.03;26.02;;;;;;;8.02;77.49;101301.19;5051471;28;20050;-69
2021/05/02 02:57:52;;;;;;;34.53;27.23;;;;;;;7.73;77.36;101290.06;5051907;28;20064;-64
2021/05/02 03:00:22;;;;;;;37.92;28.17;;;;;;;7.60;78.43;101293.44;5053716;28;20053;-67
2021/05/02 03:02:56;;;;;;;39.47;28.07;;;;;;;7.66;78.96;101303.25;5053259;28;20487;-68
2021/05/02 03:05:24;;;;;;;39.47;28.35;;;;;;;7.48;78.78;101307.44;5053882;28;20295;-66
2021/05/02 03:07:52;;;;;;;41.17;29.35;;;;;;;7.39;80.33;101311.03;5053509;28;20055;-68
2021/05/02 03:10:20;;;;;;;39.20;29.00;;;;;;;7.28;80.74;101314.88;5035878;28;20060;-67
2021/05/02 03:12:49;;;;;;;36.38;28.83;;;;;;;7.20;81.20;101313.53;5052997;28;20053;-67
2021/05/02 03:15:16;;;;;;;38.15;29.48;;;;;;;7.24;80.74;101317.34;5053725;28;20049;-66
2021/05/02 03:17:48;;;;;;;42.70;30.05;;;;;;;7.27;81.01;101314.06;5052856;28;20119;-70
2021/05/02 03:20:15;;;;;;;36.80;28.98;;;;;;;7.25;81.29;101332.72;5053650;28;20041;-67
2021/05/02 03:22:46;;;;;;;38.33;29.00;;;;;;;7.32;80.45;101327.75;5054942;28;20052;-66
2021/05/02 03:25:14;;;;;;;37.65;29.30;;;;;;;7.51;80.76;101328.00;5053722;28;20060;-67
2021/05/02 03:27:46;;;;;;;43.10;29.92;;;;;;;7.37;80.50;101332.41;5036845;28;20056;-67
2021/05/02 03:30:15;;;;;;;48.17;31.75;;;;;;;7.14;81.52;101335.72;5054642;28;20396;-69
2021/05/02 03:32:46;;;;;;;42.40;31.55;;;;;;;7.24;82.29;101335.72;5053431;28;20560;-66
2021/05/02 03:35:15;;;;;;;37.10;27.65;;;;;;;8.46;81.41;101335.81;5037088;28;20041;-70
2021/05/02 03:37:55;;;;;;;39.57;30.03;;;;;;;7.65;77.84;101335.34;5036567;28;20057;-68
2021/05/02 03:40:22;;;;;;;50.17;32.80;;;;;;;7.15;80.72;101337.38;5037012;28;20400;-70
2021/05/02 03:42:49;;;;;;;40.55;32.05;;;;;;;7.17;81.38;101333.25;5035491;28;20060;-66
2021/05/02 03:45:16;;;;;;;40.72;29.92;;;;;;;8.08;81.82;101331.06;5035777;28;20056;-68
2021/05/02 03:47:44;;;;;;;38.47;30.88;;;;;;;8.45;78.87;101336.94;5053446;28;20049;-67
2021/05/02 03:50:11;;;;;;;41.17;30.15;;;;;;;8.10;78.70;101334.34;5053350;28;20060;-66
2021/05/02 03:52:38;;;;;;;42.40;30.58;;;;;;;8.02;77.38;101340.41;5052275;28;20064;-68
2021/05/02 03:55:07;;;;;;;43.60;33.70;;;;;;;7.27;80.63;101348.88;5053495;28;20052;-65
2021/05/02 03:57:34;;;;;;;48.92;34.35;;;;;;;6.88;82.83;101348.63;5053155;28;20045;-66
2021/05/02 04:00:04;;;;;;;50.92;33.55;;;;;;;6.98;83.48;101353.25;5052672;28;20552;-67
2021/05/02 04:02:31;;;;;;;;;;;;;;;6.94;82.61;101354.94;5053476;28;20060;-65
2021/05/02 04:04:58;;;;;;;43.17;31.90;;;;;;;7.26;80.91;101369.13;5052291;28;19921;-66
2021/05/02 04:07:25;;;;;;;46.83;31.80;;;;;;;7.10;83.28;101362.03;5053030;28;20049;-68
2021/05/02 04:09:52;;;;;;;44.15;32.90;;;;;;;7.16;81.29;101367.25;5018331;28;20060;-66
2021/05/02 04:12:19;;;;;;;46.50;34.38;;;;;;;7.01;81.17;101366.44;5052243;28;20408;-67
2021/05/02 04:14:47;;;;;;;48.17;33.63;;;;;;;6.76;81.71;101373.50;5051976;28;20408;-66
2021/05/02 04:17:15;;;;;;;45.20;33.67;;;;;;;6.68;81.63;101368.59;5051706;28;20056;-67
2021/05/02 04:19:47;;;;;;;47.10;34.17;;;;;;;6.67;82.19;101375.16;5052677;28;20045;-67
2021/05/02 04:22:18;;;;;;;46.63;33.47;;;;;;;6.50;82.70;101382.78;5034667;28;20488;-70
2021/05/02 04:24:46;;;;;;;49.50;33.53;;;;;;;6.53;82.31;101379.53;5034602;28;20045;-66
2021/05/02 04:27:14;;;;;;;48.13;34.33;;;;;;;6.49;82.47;101377.56;5034180;28;20060;-69
2021/05/02 04:29:41;;;;;;;48.25;33.63;;;;;;;6.84;82.39;101381.19;5034870;28;20049;-68
2021/05/02 04:32:09;;;;;;;47.22;32.10;;;;;;;6.58;81.53;101387.75;5052315;28;20436;-67
2021/05/02 04:39:14;;;;;;;49.25;32.55;;;;;;;6.74;81.55;101411.31;5052429;28;20040;-67
2021/05/02 04:41:41;;;;;;;47.08;33.40;;;;;;;7.16;82.67;101405.59;5033507;28;20053;-67
2021/05/02 04:44:08;;;;;;;48.00;33.05;;;;;;;6.98;80.25;101405.28;5052492;28;20052;-66
2021/05/02 04:46:37;;;;;;;43.28;32.55;;;;;;;6.96;80.64;101405.56;5035050;28;20499;-66
2021/05/02 04:49:09;;;;;;;47.55;33.95;;;;;;;6.85;81.26;101403.94;5052366;28;20433;-65
2021/05/02 04:51:36;;;;;;;50.70;34.28;;;;;;;6.94;81.04;101415.19;5017715;28;20481;-67
2021/05/02 04:54:04;;;;;;;45.88;34.08;;;;;;;6.97;80.36;101415.44;5051445;28;20075;-68
2021/05/02 04:56:31;;;;;;;44.58;32.47;;;;;;;7.09;81.12;101410.53;5051636;28;20053;-68
2021/05/02 04:58:58;;;;;;;45.05;33.47;;;;;;;7.16;79.70;101424.78;5018153;28;20377;-71
2021/05/02 05:01:25;;;;;;;45.08;33.40;;;;;;;7.20;79.77;101427.78;5051901;28;20499;-67
2021/05/02 05:03:54;;;;;;;47.90;34.28;;;;;;;6.89;80.52;101429.66;5051105;28;20053;-67
2021/05/02 05:06:22;;;;;;;47.70;34.93;;;;;;;6.59;81.86;101441.38;5052136;28;20049;-69
2021/05/02 05:08:49;;;;;;;48.30;33.17;;;;;;;7.06;83.42;101443.13;5034431;28;20484;-70
2021/05/02 05:11:16;;;;;;;45.45;33.72;;;;;;;7.24;82.04;101439.81;5031616;28;20048;-70
2021/05/02 05:13:43;;;;;;;48.97;32.13;;;;;;;7.31;79.04;101443.13;5051615;28;20408;-69
2021/05/02 05:16:10;;;;;;;47.20;32.90;;;;;;;7.33;79.14;101447.25;5050876;28;20499;-69
2021/05/02 05:18:38;;;;;;;43.38;33.55;;;;;;;6.95;80.47;101453.25;5050910;28;20049;-70
2021/05/02 05:21:05;;;;;;;49.63;35.45;;;;;;;7.31;80.68;101445.84;5033302;28;20060;-69
2021/05/02 05:23:33;;;;;;;43.53;33.15;;;;;;;7.41;81.50;101448.63;5033291;28;20056;-67
2021/05/02 05:26:00;;;;;;;47.00;35.03;;;;;;;7.70;79.57;101449.69;5050578;28;20056;-69
2021/05/02 05:28:29;;;;;;;46.15;33.78;;;;;;;7.53;77.75;101449.16;5052197;28;20045;-70
2021/05/02 05:30:57;;;;;;;48.25;35.55;;;;;;;7.17;78.82;101448.31;5052453;28;20045;-67
2021/05/02 05:33:30;;;;;;;48.47;36.90;;;;;;;7.04;80.39;101456.25;5051580;28;20057;-69
2021/05/02 05:35:57;;;;;;;49.63;35.33;;;;;;;7.32;80.21;101455.75;5051559;28;20048;-69
2021/05/02 05:38:25;;;;;;;47.63;35.42;;;;;;;7.14;79.16;101467.22;5033473;28;20053;-68
2021/05/02 05:40:52;;;;;;;45.45;33.88;;;;;;;7.40;78.71;101461.50;5050883;28;20045;-67
2021/05/02 05:43:20;;;;;;;47.72;35.58;;;;;;;7.12;78.51;101474.88;5051186;28;20064;-67
2021/05/02 05:45:48;;;;;;;46.70;33.92;;;;;;;6.91;79.45;101468.56;5033797;28;20373;-67
2021/05/02 05:48:17;;;;;;;49.17;35.33;;;;;;;6.89;79.73;101468.00;5051064;28;20056;-68
2021/05/02 05:50:47;;;;;;;45.88;34.38;;;;;;;6.99;79.37;101476.22;5052233;28;20072;-67
2021/05/02 05:53:16;;;;;;;47.72;35.08;;;;;;;6.79;79.75;101479.78;5033141;28;20068;-72
2021/05/02 05:55:44;;;;;;;44.13;33.35;;;;;;;7.06;79.06;101487.75;5050959;28;20060;-67
2021/05/02 05:58:13;;;;;;;46.55;34.30;;;;;;;6.94;79.34;101480.91;5050897;28;20056;-68
2021/05/02 06:00:40;;;;;;;42.67;31.63;;;;;;;6.91;78.37;101490.47;5033030;28;20064;-69
2021/05/02 06:03:07;;;;;;;47.25;34.33;;;;;;;6.93;78.67;101493.75;5017087;28;20515;-69
2021/05/02 06:10:05;;;;;;;47.05;30.67;;;;;;;7.89;76.24;101487.22;5050716;28;20052;-67
2021/05/02 06:12:32;;;;;;;46.72;33.00;;;;;;;7.75;75.56;101494.38;5033242;28;20053;-67
2021/05/02 06:15:00;;;;;;;43.97;30.92;;;;;;;8.29;77.97;101499.22;5050912;28;20053;-67
2021/05/02 06:17:28;;;;;;;41.08;32.28;;;;;;;8.16;72.32;101492.34;5051174;28;20060;-66
2021/05/02 06:24:31;;;;;;;40.13;29.92;;;;;;;8.17;74.41;101493.19;5052344;28;20060;-67
2021/05/02 06:26:58;;;;;;;41.38;30.42;;;;;;;8.79;74.24;101491.59;5033925;28;20486;-67
2021/05/02 06:29:25;;;;;;;37.28;29.00;;;;;;;8.33;71.09;101495.66;5051599;28;20045;-67
2021/05/02 06:31:52;;;;;;;37.85;28.73;;;;;;;7.76;71.28;101496.00;5052421;28;20048;-66
2021/05/02 06:34:20;;;;;;;40.33;28.48;;;;;;;7.91;71.93;101497.91;5055128;28;20476;-67
2021/05/02 06:36:47;;;;;;;39.88;29.80;;;;;;;8.19;71.93;101496.47;5054935;28;20045;-72
2021/05/02 06:39:14;;;;;;;40.88;29.98;;;;;;;8.77;71.89;101493.81;5036645;28;20057;-69
2021/05/02 06:41:45;;;;;;;40.03;30.08;;;;;;;8.54;71.22;101496.41;5054326;28;20045;-70
2021/05/02 06:44:12;;;;;;;37.22;28.95;;;;;;;8.57;72.12;101493.91;5054757;28;20052;-68
2021/05/02 06:46:39;;;;;;;40.72;29.80;;;;;;;8.26;71.23;101499.78;5054738;28;20048;-69
2021/05/02 06:49:08;;;;;;;39.72;27.48;;;;;;;8.55;72.13;101503.53;5054129;28;20060;-68
2021/05/02 06:51:35;;;;;;;40.50;28.95;;;;;;;8.34;71.60;101505.53;5038298;28;20542;-67
2021/05/02 06:54:03;;;;;;;35.78;29.20;;;;;;;8.65;71.47;101508.97;5056532;28;20102;-68
2021/05/02 06:56:30;;;;;;;39.75;29.70;;;;;;;8.56;71.68;101508.72;5036887;28;20060;-72
2021/05/02 06:58:57;;;;;;;33.22;26.20;;;;;;;9.87;71.34;101508.66;5053444;28;20040;-70
2021/05/02 07:01:25;;;;;;;35.70;26.52;;;;;;;10.17;68.19;101508.41;5036442;28;20048;-69
2021/05/02 07:03:53;;;;;;;35.40;26.05;;;;;;;9.89;68.44;101516.63;5035533;28;20061;-69
2021/05/02 07:06:32;;;;;;;33.35;25.70;;;;;;;9.33;66.59;101518.22;5054580;28;20536;-69
2021/05/02 07:09:00;;;;;;;30.15;24.45;;;;;;;9.58;67.27;101513.34;5035536;28;20045;-68
2021/05/02 07:11:27;;;;;;;31.80;25.98;;;;;;;9.29;68.45;101517.13;5054169;28;20052;-69
2021/05/02 07:13:55;;;;;;;32.67;26.77;;;;;;;9.10;67.50;101520.53;5035867;28;20116;-69
2021/05/02 07:16:22;;;;;;;33.97;26.25;;;;;;;9.31;67.96;101525.94;5053565;28;20060;-69
2021/05/02 07:18:51;;;;;;;35.67;26.83;;;;;;;9.13;66.97;101523.81;5036260;28;20075;-65
2021/05/02 07:25:46;;;;;;;34.03;26.60;;;;;;;10.04;66.78;101525.56;5053563;28;20055;-69
2021/05/02 07:28:13;;;;;;;31.58;24.80;;;;;;;10.33;66.90;101531.09;5035679;28;20072;-70
2021/05/02 07:30:41;;;;;;;31.35;24.77;;;;;;;10.53;64.39;101527.28;5053538;28;20527;-67
2021/05/02 07:33:08;;;;;;;34.28;22.05;;;;;;;11.38;64.71;101534.41;5052979;28;20071;-67
2021/05/02 07:40:04;;;;;;;26.95;21.50;;;;;;;9.92;61.55;101538.88;5054161;28;20037;-69
2021/05/02 07:42:32;;;;;;;31.52;22.13;;;;;;;9.82;62.03;101533.47;5052853;28;20555;-69
2021/05/02 07:45:00;;;;;;;29.92;20.42;;;;;;;9.80;66.06;101540.38;5052993;28;20045;-68
2021/05/02 07:47:27;;;;;;;26.48;20.40;;;;;;;10.00;60.87;101540.19;5053802;28;20052;-70
2021/05/02 07:54:20;;;;;;;26.00;19.27;;;;;;;10.55;58.71;101533.34;5035749;28;20052;-70
2021/05/02 07:56:47;;;;;;;29.08;19.45;;;;;;;10.06;60.87;101547.28;5053236;28;20056;-65
2021/05/02 07:59:14;;;;;;;22.77;16.17;;;;;;;11.22;62.70;101541.25;5052438;28;20045;-66
2021/05/02 08:01:41;;;;;;;26.38;18.42;;;;;;;11.14;57.82;101551.00;5036272;28;20041;-66
2021/05/02 08:04:09;;;;;;;24.92;18.65;;;;;;;10.30;59.76;101547.38;5053044;28;20400;-63
2021/05/02 08:11:13;;;;;;;28.88;21.55;;;;;;;9.07;63.77;101547.75;5013627;28;20413;-67
2021/05/02 08:13:40;;;;;;;26.88;20.40;;;;;;;9.43;64.19;101562.13;5010735;28;20045;-63
2021/05/02 08:16:08;;;;;;;25.73;19.98;;;;;;;9.96;62.44;101550.97;5012681;28;20038;-70
2021/05/02 08:18:35;;;;;;;27.77;20.05;;;;;;;10.05;61.48;101559.41;5010656;28;20500;-68
2021/05/02 08:25:39;;;;;;;35.50;21.83;;;;;;;9.62;62.28;101563.91;5013527;28;20050;-68
2021/05/02 08:28:06;;;;;;;26.20;20.63;;;;;;;10.01;62.73;101553.69;5012173;28;20053;-69
2021/05/02 08:30:33;;;;;;;24.77;18.65;;;;;;;9.65;61.34;101562.50;5011786;28;20145;-66
2021/05/02 08:33:01;;;;;;;24.23;17.05;;;;;;;10.26;63.66;101560.91;5012027;28;20073;-70
2021/05/02 08:35:27;;;;;;;29.20;20.48;;;;;;;10.44;60.55;101556.59;5011729;28;20569;-69
2021/05/02 08:37:55;;;;;;;27.70;21.00;;;;;;;9.78;61.27;101564.63;5010775;28;20106;-70
2021/05/02 08:40:22;;;;;;;30.27;20.25;;;;;;;10.26;63.56;101560.06;5011511;28;20050;-71
2021/05/02 08:42:50;;;;;;;27.30;20.17;;;;;;;10.54;58.97;101562.81;5011961;28;20060;-67
2021/05/02 08:45:18;;;;;;;27.08;18.83;;;;;;;10.70;64.26;101569.78;5011526;28;20405;-68
2021/05/02 08:47:48;;;;;;;27.75;19.02;;;;;;;11.20;61.38;101563.63;5010194;28;20057;-66
2021/05/02 08:50:19;;;;;;;23.63;18.52;;;;;;;11.43;59.12;101561.09;5011735;28;20054;-67
2021/05/02 08:52:46;;;;;;;24.73;18.30;;;;;;;11.78;56.53;101566.91;5010368;28;20061;-65
2021/05/02 08:55:13;;;;;;;23.10;17.40;;;;;;;11.11;57.34;101568.16;5011572;28;20058;-63
2021/05/02 08:57:41;;;;;;;22.25;17.40;;;;;;;10.30;57.94;101578.50;5010056;28;20386;-65
2021/05/02 09:00:09;;;;;;;22.67;16.25;;;;;;;10.20;59.42;101581.31;5011565;28;20500;-63
2021/05/02 09:02:35;;;;;;;25.27;16.60;;;;;;;10.90;60.88;101577.78;5011548;28;20065;-69
2021/05/02 09:05:05;;;;;;;22.58;16.45;;;;;;;11.67;58.70;101576.47;5011569;28;20067;-68
2021/05/02 09:12:18;;;;;;;21.75;16.40;;;;;;;11.12;55.85;101575.28;5011538;28;20057;-67
2021/05/02 09:14:46;;;;;;;21.83;16.30;;;;;;;10.48;58.10;101574.97;5010096;28;20057;-66
2021/05/02 09:17:17;;;;;;;21.20;15.60;;;;;;;10.65;57.66;101577.28;5010123;28;20056;-67
2021/05/02 09:19:50;;;;;;;18.83;13.55;;;;;;;11.38;56.54;101573.81;5009438;28;20382;-64
2021/05/02 09:26:44;;;;;;;22.85;14.35;;;;;;;10.52;55.82;101581.56;5011343;28;20061;-66
2021/05/02 09:29:11;;;;;;;22.42;16.15;;;;;;;10.52;58.48;101572.47;5011342;28;20476;-67
2021/05/02 09:31:41;;;;;;;23.73;17.13;;;;;;;11.05;55.93;101574.84;5011338;28;20045;-69
2021/05/02 09:34:12;;;;;;;19.00;14.40;;;;;;;10.83;54.46;101568.22;5011333;28;20058;-65
2021/05/02 09:36:56;;;;;;;21.45;13.35;;;;;;;10.62;54.65;101575.09;5011068;28;20389;-68
2021/05/02 09:39:47;;;;;;;19.33;13.27;;;;;;;10.82;55.77;101572.94;5011332;28;20046;-68
2021/05/02 09:42:20;;;;;;;19.50;13.18;;;;;;;11.38;53.65;101572.19;5009524;28;20089;-68
2021/05/02 09:44:56;;;;;;;18.75;13.90;;;;;;;10.90;54.44;101576.97;5009363;28;20050;-67
2021/05/02 09:47:39;;;;;;;19.52;14.00;;;;;;;10.88;54.63;101582.78;5011376;28;20049;-64
2021/05/02 09:50:21;;;;;;;18.90;13.45;;;;;;;11.49;55.67;101577.25;5011007;28;20046;-67
2021/05/02 09:52:57;;;;;;;16.65;12.57;;;;;;;11.14;51.86;101580.53;5011079;28;20058;-68
2021/05/02 09:55:24;;;;;;;17.73;12.02;;;;;;;10.85;50.73;101579.78;5008834;28;20042;-68
2021/05/02 09:58:06;;;;;;;17.83;11.95;;;;;;;10.83;51.50;101587.53;5010619;28;20049;-71
2021/05/02 10:00:39;;;;;;;16.95;12.20;;;;;;;10.75;51.52;101577.16;5009871;28;20118;-69
2021/05/02 10:03:13;;;;;;;17.30;11.68;;;;;;;10.92;55.09;101578.31;5011531;28;20050;-67
2021/05/02 10:06:03;;;;;;;17.08;13.27;;;;;;;11.06;52.17;101581.19;5011503;28;20401;-70
2021/05/02 10:08:34;;;;;;;17.17;12.13;;;;;;;11.55;50.61;101583.53;5014568;28;20569;-67
2021/05/02 10:11:11;;;;;;;19.15;13.63;;;;;;;11.16;51.38;101572.75;5039070;28;20053;-69
2021/05/02 10:13:39;;;;;;;15.65;11.95;;;;;;;11.51;51.72;101572.25;5035885;28;20057;-68
2021/05/02 10:16:09;;;;;;;16.15;12.82;;;;;;;11.88;51.80;101569.50;5053254;28;20053;-70
2021/05/02 10:18:36;;;;;;;17.67;11.88;;;;;;;12.17;49.01;101559.03;5053595;28;20052;-70
2021/05/02 10:21:05;;;;;;;18.95;12.38;;;;;;;12.44;49.72;101567.41;5036081;28;20052;-68
2021/05/02 10:23:35;;;;;;;19.83;13.30;;;;;;;11.67;50.92;101576.47;5054134;28;20400;-71
2021/05/02 10:26:04;;;;;;;18.02;12.65;;;;;;;11.94;49.36;101570.25;5030475;28;20056;-69
2021/05/02 10:28:32;;;;;;;18.17;13.00;;;;;;;11.92;49.96;101565.03;5036286;28;20057;-73
2021/05/02 10:31:02;;;;;;;18.20;12.23;;;;;;;12.32;48.22;101566.25;5053285;28;20045;-69
2021/05/02 10:33:38;;;;;;;16.33;12.13;;;;;;;11.95;49.21;101569.94;5053751;28;20057;-72
2021/05/02 10:36:10;;;;;;;17.45;12.77;;;;;;;11.55;50.91;101576.06;5019422;28;20132;-73
2021/05/02 10:38:44;;;;;;;16.75;11.27;;;;;;;11.34;48.36;101575.56;5051407;28;20041;-70
2021/05/02 10:41:33;;;;;;;12.80;9.88;;;;;;;10.74;50.07;101583.81;5035750;28;20049;-72
2021/05/02 10:44:05;;;;;;;16.38;11.80;;;;;;;10.92;52.36;101577.50;5053877;28;20056;-69
2021/05/02 10:46:43;;;;;;;15.63;12.38;;;;;;;11.41;52.76;101586.22;5052952;28;20057;-70
2021/05/02 10:49:12;;;;;;;16.33;12.27;;;;;;;10.85;54.19;101577.88;5034455;28;20057;-70
2021/05/02 10:51:39;;;;;;;16.08;12.07;;;;;;;10.40;55.70;101577.56;5035989;28;20048;-70
2021/05/02 10:54:08;;;;;;;17.17;12.60;;;;;;;10.56;55.43;101577.13;5019381;28;20057;-70
2021/05/02 10:56:43;;;;;;;16.67;12.30;;;;;;;10.68;54.81;101579.44;5036199;28;20045;-72
2021/05/02 10:59:12;;;;;;;15.07;11.10;;;;;;;10.85;52.99;101575.09;5018893;28;20052;-70
2021/05/02 11:01:39;;;;;;;16.05;10.73;;;;;;;11.06;53.07;101575.66;5019371;28;20041;-70
2021/05/02 11:04:07;;;;;;;12.82;9.48;;;;;;;12.39;51.40;101567.50;5019092;28;20045;-71
2021/05/02 11:06:37;;;;;;;17.52;11.23;;;;;;;12.88;48.37;101571.50;5034921;28;20045;-69
2021/05/02 11:09:08;;;;;;;18.90;11.80;;;;;;;12.48;47.54;101573.13;5049533;28;20057;-70
2021/05/02 11:11:38;;;;;;;14.82;11.23;;;;;;;12.36;47.50;101568.09;5051568;28;20075;-68
2021/05/02 11:14:11;;;;;;;12.52;9.27;;;;;;;12.62;47.63;101575.91;5052197;28;20059;-67
2021/05/02 11:16:42;;;;;;;12.40;9.20;;;;;;;12.73;46.48;101566.25;5052988;28;20053;-66
2021/05/02 11:19:34;;;;;;;14.13;10.52;;;;;;;13.18;44.80;101563.41;5051322;28;20041;-66
2021/05/02 11:22:06;;;;;;;12.10;9.85;;;;;;;12.64;44.58;101574.47;5035256;28;20049;-68
2021/05/02 11:24:43;;;;;;;14.85;9.63;;;;;;;12.25;46.88;101574.09;5052631;28;20063;-68
2021/05/02 11:27:18;;;;;;;13.80;10.00;;;;;;;12.48;46.03;101579.47;5052831;28;20041;-64
2021/05/02 11:32:30;;;;;;;8.55;6.28;;;;;;;11.35;48.54;101607.53;5052730;28;20064;-66
2021/05/02 11:35:04;;;;;;;11.27;6.43;;;;;;;11.43;47.69;101592.25;5051842;28;20452;-68
2021/05/02 11:37:44;;;;;;;11.65;6.82;;;;;;;11.91;49.18;101590.16;5035265;28;20053;-68
2021/05/02 11:40:30;;;;;;;16.85;8.45;;;;;;;12.32;49.60;101583.66;5034559;28;20052;-66
2021/05/02 11:43:13;;;;;;;8.90;6.70;;;;;;;12.87;49.21;101576.22;5052036;28;20052;-64
2021/05/02 11:45:47;;;;;;;8.38;5.95;;;;;;;13.08;48.63;101576.63;5052072;28;20049;-66
2021/05/02 11:48:21;;;;;;;11.00;6.43;;;;;;;13.38;48.63;101573.19;5052732;28;20060;-64
2021/05/02 11:50:51;;;;;;;9.55;6.95;;;;;;;13.38;47.74;101574.03;5053048;28;20056;-64
2021/05/02 11:57:45;;;;;;;10.27;7.13;;;;;;;13.63;48.73;101574.56;5052575;28;20037;-65
2021/05/02 12:00:13;;;;;;;10.50;6.75;;;;;;;13.71;47.28;101565.50;5051725;28;20059;-65
2021/05/02 12:02:44;;;;;;;8.48;5.97;;;;;;;14.08;46.41;101565.13;5034098;28;20059;-66
2021/05/02 12:05:11;;;;;;;8.48;5.93;;;;;;;13.96;45.44;101557.41;5052482;28;20056;-66
2021/05/02 12:07:38;;;;;;;8.10;5.40;;;;;;;14.25;43.85;101543.88;5034398;28;20049;-63
2021/05/02 12:14:35;;;;;;;7.75;5.20;;;;;;;14.24;42.90;101550.53;5012348;28;20073;-66
2021/05/02 12:17:02;;;;;;;9.60;6.03;;;;;;;14.43;43.83;101551.19;5012082;28;20431;-64
2021/05/02 12:19:31;;;;;;;11.23;7.18;;;;;;;14.23;42.99;101548.09;5011622;28;20489;-65
2021/05/02 12:21:58;;;;;;;10.32;7.80;;;;;;;14.45;42.34;101540.56;5011928;28;20045;-67
2021/05/02 12:28:50;;;;;;;10.35;7.55;;;;;;;14.95;41.02;101532.78;5012525;28;20053;-66
2021/05/02 12:31:17;;;;;;;10.85;7.20;;;;;;;15.04;41.24;101530.00;5011576;28;20046;-63
2021/05/02 12:33:44;;;;;;;14.35;9.10;;;;;;;14.88;41.76;101542.69;5011047;28;20104;-68
2021/05/02 12:36:15;;;;;;;13.38;8.65;;;;;;;15.24;41.52;101530.22;5012614;28;20401;-67
2021/05/02 12:38:42;;;;;;;12.65;7.88;;;;;;;15.47;41.35;101528.97;5011676;28;20389;-65
2021/05/02 12:45:46;;;;;;;10.38;7.00;;;;;;;15.49;39.93;101517.53;5011680;28;20049;-65